sensor_id;sensor_type;location;lat;lon;timestamp;pressure;altitude;pressure_sealevel;temperature;humidity
48404;BME280;34202;52.536;6.042;2023-04-06T00:02:18;101984.86;;;4.18;57.84
48404;BME280;34202;52.536;6.042;2023-04-06T00:07:18;101982.19;;;4.09;58.06
48404;BME280;34202;52.536;6.042;2023-04-06T00:12:18;101979.42;;;4.02;58.21
48404;BME280;34202;52.536;6.042;2023-04-06T00:17:19;101973.75;;;3.96;58.73
48404;BME280;34202;52.536;6.042;2023-04-06T00:22:19;101967.19;;;3.88;58.97
48404;BME280;34202;52.536;6.042;2023-04-06T00:27:20;101957.73;;;3.82;58.82
48404;BME280;34202;52.536;6.042;2023-04-06T00:32:20;101952.29;;;3.77;59.12
48404;BME280;34202;52.536;6.042;2023-04-06T00:37:20;101948.73;;;3.71;59.46
48404;BME280;34202;52.536;6.042;2023-04-06T00:42:21;101943.11;;;3.66;59.67
48404;BME280;34202;52.536;6.042;2023-04-06T00:47:25;101940.07;;;3.60;60.05
48404;BME280;34202;52.536;6.042;2023-04-06T00:52:26;101935.60;;;3.54;60.12
48404;BME280;34202;52.536;6.042;2023-04-06T00:57:26;101930.97;;;3.48;60.23
48404;BME280;34202;52.536;6.042;2023-04-06T01:02:26;101930.63;;;3.41;60.60
48404;BME280;34202;52.536;6.042;2023-04-06T01:07:27;101924.46;;;3.35;60.84
48404;BME280;34202;52.536;6.042;2023-04-06T01:12:27;101917.95;;;3.29;61.33
48404;BME280;34202;52.536;6.042;2023-04-06T01:17:27;101906.93;;;3.23;61.29
48404;BME280;34202;52.536;6.042;2023-04-06T01:22:28;101908.00;;;3.17;61.52
48404;BME280;34202;52.536;6.042;2023-04-06T01:27:29;101900.64;;;3.12;61.78
48404;BME280;34202;52.536;6.042;2023-04-06T01:32:29;101898.77;;;3.05;61.92
48404;BME280;34202;52.536;6.042;2023-04-06T01:37:30;101893.48;;;3.00;62.05
48404;BME280;34202;52.536;6.042;2023-04-06T01:42:32;101892.38;;;2.95;62.45
48404;BME280;34202;52.536;6.042;2023-04-06T01:47:32;101886.73;;;2.90;62.33
48404;BME280;34202;52.536;6.042;2023-04-06T01:52:33;101882.66;;;2.84;62.76
48404;BME280;34202;52.536;6.042;2023-04-06T01:57:33;101881.52;;;2.79;62.75
48404;BME280;34202;52.536;6.042;2023-04-06T02:02:34;101880.73;;;2.74;63.03
48404;BME280;34202;52.536;6.042;2023-04-06T02:07:35;101872.21;;;2.69;63.35
48404;BME280;34202;52.536;6.042;2023-04-06T02:12:35;101869.89;;;2.64;63.86
48404;BME280;34202;52.536;6.042;2023-04-06T02:17:35;101865.36;;;2.60;63.91
48404;BME280;34202;52.536;6.042;2023-04-06T02:22:36;101859.29;;;2.56;64.18
48404;BME280;34202;52.536;6.042;2023-04-06T02:27:36;101850.83;;;2.52;64.37
48404;BME280;34202;52.536;6.042;2023-04-06T02:32:36;101848.88;;;2.48;64.97
48404;BME280;34202;52.536;6.042;2023-04-06T02:37:37;101843.77;;;2.46;65.16
48404;BME280;34202;52.536;6.042;2023-04-06T02:42:37;101847.05;;;2.43;65.24
48404;BME280;34202;52.536;6.042;2023-04-06T02:47:37;101843.33;;;2.41;65.37
48404;BME280;34202;52.536;6.042;2023-04-06T02:52:37;101839.59;;;2.39;65.65
48404;BME280;34202;52.536;6.042;2023-04-06T02:57:38;101837.19;;;2.36;65.49
48404;BME280;34202;52.536;6.042;2023-04-06T03:02:38;101833.79;;;2.33;65.63
48404;BME280;34202;52.536;6.042;2023-04-06T03:07:38;101826.29;;;2.31;65.79
48404;BME280;34202;52.536;6.042;2023-04-06T03:12:38;101823.42;;;2.29;65.86
48404;BME280;34202;52.536;6.042;2023-04-06T03:17:39;101817.95;;;2.26;65.79
48404;BME280;34202;52.536;6.042;2023-04-06T03:22:39;101816.52;;;2.23;66.05
48404;BME280;34202;52.536;6.042;2023-04-06T03:27:40;101816.84;;;2.19;66.08
48404;BME280;34202;52.536;6.042;2023-04-06T03:32:40;101812.94;;;2.17;66.28
48404;BME280;34202;52.536;6.042;2023-04-06T03:37:40;101810.03;;;2.14;66.17
48404;BME280;34202;52.536;6.042;2023-04-06T03:42:41;101809.23;;;2.12;66.50
48404;BME280;34202;52.536;6.042;2023-04-06T03:47:41;101805.86;;;2.10;66.37
48404;BME280;34202;52.536;6.042;2023-04-06T03:52:41;101804.40;;;2.08;66.83
48404;BME280;34202;52.536;6.042;2023-04-06T03:57:41;101802.59;;;2.07;66.73
48404;BME280;34202;52.536;6.042;2023-04-06T04:02:42;101802.45;;;2.04;66.81
48404;BME280;34202;52.536;6.042;2023-04-06T04:07:42;101803.55;;;2.02;66.86
48404;BME280;34202;52.536;6.042;2023-04-06T04:12:42;101803.45;;;2.01;66.96
48404;BME280;34202;52.536;6.042;2023-04-06T04:17:43;101800.84;;;2.00;67.25
48404;BME280;34202;52.536;6.042;2023-04-06T04:22:46;101802.00;;;1.99;67.39
48404;BME280;34202;52.536;6.042;2023-04-06T04:27:47;101796.84;;;1.99;67.61
48404;BME280;34202;52.536;6.042;2023-04-06T04:32:47;101796.69;;;1.99;67.74
48404;BME280;34202;52.536;6.042;2023-04-06T04:37:47;101797.24;;;2.00;68.06
48404;BME280;34202;52.536;6.042;2023-04-06T04:42:48;101793.46;;;2.00;68.00
48404;BME280;34202;52.536;6.042;2023-04-06T04:47:48;101789.75;;;2.01;68.20
48404;BME280;34202;52.536;6.042;2023-04-06T04:52:49;101782.20;;;2.02;68.20
48404;BME280;34202;52.536;6.042;2023-04-06T04:57:49;101779.52;;;2.03;68.02
48404;BME280;34202;52.536;6.042;2023-04-06T05:02:49;101782.68;;;2.04;68.22
48404;BME280;34202;52.536;6.042;2023-04-06T05:07:50;101779.03;;;2.06;68.28
48404;BME280;34202;52.536;6.042;2023-04-06T05:12:50;101779.69;;;2.09;68.16
48404;BME280;34202;52.536;6.042;2023-04-06T05:17:50;101777.34;;;2.13;68.36
48404;BME280;34202;52.536;6.042;2023-04-06T05:22:51;101776.60;;;2.15;68.17
48404;BME280;34202;52.536;6.042;2023-04-06T05:27:51;101774.01;;;2.18;68.34
48404;BME280;34202;52.536;6.042;2023-04-06T05:32:51;101772.51;;;2.22;68.48
48404;BME280;34202;52.536;6.042;2023-04-06T05:37:51;101770.41;;;2.27;68.37
48404;BME280;34202;52.536;6.042;2023-04-06T05:42:52;101765.03;;;2.33;68.55
48404;BME280;34202;52.536;6.042;2023-04-06T05:47:52;101758.14;;;2.38;68.81
48404;BME280;34202;52.536;6.042;2023-04-06T05:52:52;101757.32;;;2.45;68.59
48404;BME280;34202;52.536;6.042;2023-04-06T05:57:53;101757.52;;;2.52;68.50
48404;BME280;34202;52.536;6.042;2023-04-06T06:02:53;101756.23;;;2.61;68.62
48404;BME280;34202;52.536;6.042;2023-04-06T06:07:53;101756.91;;;2.70;68.42
48404;BME280;34202;52.536;6.042;2023-04-06T06:12:53;101753.14;;;2.80;68.40
48404;BME280;34202;52.536;6.042;2023-04-06T06:17:54;101755.48;;;2.92;68.32
48404;BME280;34202;52.536;6.042;2023-04-06T06:22:54;101753.34;;;3.03;68.75
48404;BME280;34202;52.536;6.042;2023-04-06T06:27:56;101752.04;;;3.15;68.37
48404;BME280;34202;52.536;6.042;2023-04-06T06:32:56;101750.92;;;3.27;68.23
48404;BME280;34202;52.536;6.042;2023-04-06T06:37:56;101747.52;;;3.38;67.93
48404;BME280;34202;52.536;6.042;2023-04-06T06:42:57;101742.26;;;3.46;67.52
48404;BME280;34202;52.536;6.042;2023-04-06T06:47:57;101743.21;;;3.55;67.58
48404;BME280;34202;52.536;6.042;2023-04-06T06:52:57;101740.64;;;3.65;67.29
48404;BME280;34202;52.536;6.042;2023-04-06T06:57:58;101741.19;;;3.77;67.43
48404;BME280;34202;52.536;6.042;2023-04-06T07:02:58;101738.03;;;3.90;67.38
48404;BME280;34202;52.536;6.042;2023-04-06T07:07:58;101735.89;;;4.03;67.44
48404;BME280;34202;52.536;6.042;2023-04-06T07:12:58;101727.67;;;4.15;67.42
48404;BME280;34202;52.536;6.042;2023-04-06T07:17:59;101728.23;;;4.31;67.43
48404;BME280;34202;52.536;6.042;2023-04-06T07:22:59;101723.00;;;4.48;67.65
48404;BME280;34202;52.536;6.042;2023-04-06T07:28:00;101723.34;;;4.67;67.76
48404;BME280;34202;52.536;6.042;2023-04-06T07:33:00;101718.76;;;4.85;67.70
48404;BME280;34202;52.536;6.042;2023-04-06T07:38:01;101719.80;;;5.08;67.96
48404;BME280;34202;52.536;6.042;2023-04-06T07:43:01;101714.27;;;5.37;68.10
48404;BME280;34202;52.536;6.042;2023-04-06T07:48:02;101711.70;;;5.67;68.02
48404;BME280;34202;52.536;6.042;2023-04-06T07:53:02;101706.67;;;5.96;68.24
48404;BME280;34202;52.536;6.042;2023-04-06T07:58:02;101704.17;;;6.25;67.89
48404;BME280;34202;52.536;6.042;2023-04-06T08:03:03;101699.26;;;6.51;67.46
48404;BME280;34202;52.536;6.042;2023-04-06T08:08:03;101699.16;;;6.77;67.14
48404;BME280;34202;52.536;6.042;2023-04-06T08:13:03;101697.68;;;7.03;67.25
48404;BME280;34202;52.536;6.042;2023-04-06T08:18:04;101695.00;;;7.32;67.16
48404;BME280;34202;52.536;6.042;2023-04-06T08:23:04;101693.64;;;7.59;66.78
48404;BME280;34202;52.536;6.042;2023-04-06T08:28:05;101686.55;;;7.80;66.03
48404;BME280;34202;52.536;6.042;2023-04-06T08:33:05;101684.27;;;8.01;65.36
48404;BME280;34202;52.536;6.042;2023-04-06T08:38:05;101685.35;;;8.21;64.94
48404;BME280;34202;52.536;6.042;2023-04-06T08:43:06;101677.87;;;8.43;64.84
48404;BME280;34202;52.536;6.042;2023-04-06T08:48:09;101680.60;;;8.72;64.75
48404;BME280;34202;52.536;6.042;2023-04-06T08:53:10;101677.45;;;8.97;64.38
48404;BME280;34202;52.536;6.042;2023-04-06T08:58:11;101675.35;;;9.16;63.50
48404;BME280;34202;52.536;6.042;2023-04-06T09:03:12;101672.81;;;9.32;62.98
48404;BME280;34202;52.536;6.042;2023-04-06T09:08:13;101671.98;;;9.48;62.58
48404;BME280;34202;52.536;6.042;2023-04-06T09:13:13;101671.44;;;9.61;62.14
48404;BME280;34202;52.536;6.042;2023-04-06T09:18:13;101671.26;;;9.76;61.72
48404;BME280;34202;52.536;6.042;2023-04-06T09:23:17;101668.41;;;9.88;61.08
48404;BME280;34202;52.536;6.042;2023-04-06T09:28:17;101666.91;;;9.99;60.91
48404;BME280;34202;52.536;6.042;2023-04-06T09:33:22;101660.16;;;10.08;60.30
48404;BME280;34202;52.536;6.042;2023-04-06T09:38:22;101662.70;;;10.20;60.19
48404;BME280;34202;52.536;6.042;2023-04-06T09:43:23;101659.15;;;10.33;60.05
48404;BME280;34202;52.536;6.042;2023-04-06T09:48:24;101649.11;;;10.44;59.57
48404;BME280;34202;52.536;6.042;2023-04-06T09:53:26;101652.31;;;10.55;59.17
48404;BME280;34202;52.536;6.042;2023-04-06T09:58:26;101643.13;;;10.67;59.05
48404;BME280;34202;52.536;6.042;2023-04-06T10:03:41;101643.96;;;10.83;58.32
48404;BME280;34202;52.536;6.042;2023-04-06T10:08:45;101640.57;;;10.99;57.63
48404;BME280;34202;52.536;6.042;2023-04-06T10:13:48;101638.24;;;11.15;57.27
48404;BME280;34202;52.536;6.042;2023-04-06T10:18:50;101636.58;;;11.41;57.60
48404;BME280;34202;52.536;6.042;2023-04-06T10:23:52;101631.36;;;11.64;56.95
48404;BME280;34202;52.536;6.042;2023-04-06T10:28:54;101630.40;;;11.82;56.54
48404;BME280;34202;52.536;6.042;2023-04-06T10:33:55;101625.64;;;12.01;55.97
48404;BME280;34202;52.536;6.042;2023-04-06T10:39:04;101620.14;;;12.22;55.76
48404;BME280;34202;52.536;6.042;2023-04-06T10:44:04;101619.34;;;12.42;55.35
48404;BME280;34202;52.536;6.042;2023-04-06T10:49:11;101616.69;;;12.55;54.54
48404;BME280;34202;52.536;6.042;2023-04-06T10:54:14;101615.04;;;12.64;54.13
48404;BME280;34202;52.536;6.042;2023-04-06T10:59:21;101614.91;;;12.68;53.99
48404;BME280;34202;52.536;6.042;2023-04-06T11:04:22;101617.39;;;12.72;53.84
48404;BME280;34202;52.536;6.042;2023-04-06T11:09:24;101617.61;;;12.75;53.79
48404;BME280;34202;52.536;6.042;2023-04-06T11:14:25;101619.06;;;12.81;53.77
48404;BME280;34202;52.536;6.042;2023-04-06T11:19:26;101619.98;;;12.87;53.78
48404;BME280;34202;52.536;6.042;2023-04-06T11:24:26;101616.92;;;12.95;53.90
48404;BME280;34202;52.536;6.042;2023-04-06T11:29:27;101615.23;;;13.02;53.67
48404;BME280;34202;52.536;6.042;2023-04-06T11:34:28;101618.26;;;13.08;53.53
48404;BME280;34202;52.536;6.042;2023-04-06T11:39:29;101615.14;;;13.13;53.23
48404;BME280;34202;52.536;6.042;2023-04-06T11:44:43;101613.27;;;13.18;53.03
48404;BME280;34202;52.536;6.042;2023-04-06T11:49:46;101607.36;;;13.23;52.85
48404;BME280;34202;52.536;6.042;2023-04-06T11:54:47;101606.01;;;13.27;53.07
48404;BME280;34202;52.536;6.042;2023-04-06T11:59:48;101607.10;;;13.30;53.06
48404;BME280;34202;52.536;6.042;2023-04-06T12:04:49;101611.32;;;13.31;53.26
48404;BME280;34202;52.536;6.042;2023-04-06T12:09:49;101610.19;;;13.25;53.28
48404;BME280;34202;52.536;6.042;2023-04-06T12:14:50;101609.08;;;13.18;53.90
48404;BME280;34202;52.536;6.042;2023-04-06T12:19:50;101610.42;;;13.12;54.94
48404;BME280;34202;52.536;6.042;2023-04-06T12:24:50;101611.45;;;13.08;55.30
48404;BME280;34202;52.536;6.042;2023-04-06T12:29:51;101611.55;;;13.01;55.09
48404;BME280;34202;52.536;6.042;2023-04-06T12:34:52;101609.87;;;12.89;55.07
48404;BME280;34202;52.536;6.042;2023-04-06T12:39:52;101609.60;;;12.81;55.86
48404;BME280;34202;52.536;6.042;2023-04-06T12:44:53;101610.63;;;12.76;56.50
48404;BME280;34202;52.536;6.042;2023-04-06T12:49:53;101610.73;;;12.69;56.70
48404;BME280;34202;52.536;6.042;2023-04-06T12:54:54;101611.82;;;12.58;56.99
48404;BME280;34202;52.536;6.042;2023-04-06T12:59:56;101611.20;;;12.49;57.93
48404;BME280;34202;52.536;6.042;2023-04-06T13:04:56;101610.71;;;12.37;59.05
48404;BME280;34202;52.536;6.042;2023-04-06T13:09:57;101609.32;;;12.22;60.00
48404;BME280;34202;52.536;6.042;2023-04-06T13:14:57;101610.88;;;12.08;61.14
48404;BME280;34202;52.536;6.042;2023-04-06T13:19:57;101608.27;;;11.94;61.30
48404;BME280;34202;52.536;6.042;2023-04-06T13:24:58;101606.63;;;11.78;61.99
48404;BME280;34202;52.536;6.042;2023-04-06T13:29:58;101606.73;;;11.60;62.60
48404;BME280;34202;52.536;6.042;2023-04-06T13:34:58;101607.77;;;11.50;63.78
48404;BME280;34202;52.536;6.042;2023-04-06T13:40:01;101609.79;;;11.44;65.43
48404;BME280;34202;52.536;6.042;2023-04-06T13:45:02;101603.77;;;11.37;66.52
48404;BME280;34202;52.536;6.042;2023-04-06T13:50:02;101602.27;;;11.32;67.66
48404;BME280;34202;52.536;6.042;2023-04-06T13:55:03;101597.15;;;11.27;68.73
48404;BME280;34202;52.536;6.042;2023-04-06T14:00:04;101595.13;;;11.20;69.34
48404;BME280;34202;52.536;6.042;2023-04-06T14:05:05;101589.98;;;11.04;69.31
48404;BME280;34202;52.536;6.042;2023-04-06T14:10:06;101598.42;;;10.88;69.97
48404;BME280;34202;52.536;6.042;2023-04-06T14:15:13;101598.15;;;10.74;70.55
48404;BME280;34202;52.536;6.042;2023-04-06T14:20:13;101594.43;;;10.60;71.23
48404;BME280;34202;52.536;6.042;2023-04-06T14:25:15;101594.34;;;10.46;71.89
48404;BME280;34202;52.536;6.042;2023-04-06T14:30:16;101589.83;;;10.38;72.78
48404;BME280;34202;52.536;6.042;2023-04-06T14:35:16;101585.65;;;10.30;72.80
48404;BME280;34202;52.536;6.042;2023-04-06T14:40:16;101588.13;;;10.15;72.60
48404;BME280;34202;52.536;6.042;2023-04-06T14:45:17;101585.77;;;10.02;73.46
48404;BME280;34202;52.536;6.042;2023-04-06T14:50:19;101582.65;;;9.94;74.04
48404;BME280;34202;52.536;6.042;2023-04-06T14:55:19;101582.40;;;9.83;74.46
48404;BME280;34202;52.536;6.042;2023-04-06T15:00:20;101581.70;;;9.74;75.02
48404;BME280;34202;52.536;6.042;2023-04-06T15:05:20;101575.17;;;9.62;75.53
48404;BME280;34202;52.536;6.042;2023-04-06T15:10:20;101570.23;;;9.51;76.27
48404;BME280;34202;52.536;6.042;2023-04-06T15:15:21;101564.64;;;9.42;76.43
48404;BME280;34202;52.536;6.042;2023-04-06T15:20:21;101564.30;;;9.35;76.95
48404;BME280;34202;52.536;6.042;2023-04-06T15:25:21;101562.80;;;9.30;77.40
48404;BME280;34202;52.536;6.042;2023-04-06T15:30:22;101563.39;;;9.26;78.11
48404;BME280;34202;52.536;6.042;2023-04-06T15:35:22;101561.47;;;9.25;78.79
48404;BME280;34202;52.536;6.042;2023-04-06T15:40:23;101554.81;;;9.23;79.45
48404;BME280;34202;52.536;6.042;2023-04-06T15:45:24;101549.16;;;9.18;80.06
48404;BME280;34202;52.536;6.042;2023-04-06T15:50:24;101547.33;;;9.15;80.68
48404;BME280;34202;52.536;6.042;2023-04-06T15:55:24;101542.80;;;9.07;81.12
48404;BME280;34202;52.536;6.042;2023-04-06T16:00:24;101542.65;;;9.00;81.69
48404;BME280;34202;52.536;6.042;2023-04-06T16:05:27;101537.67;;;8.96;82.22
48404;BME280;34202;52.536;6.042;2023-04-06T16:10:28;101537.84;;;8.89;82.63
48404;BME280;34202;52.536;6.042;2023-04-06T16:15:28;101531.27;;;8.83;83.16
48404;BME280;34202;52.536;6.042;2023-04-06T16:20:29;101523.81;;;8.76;83.92
48404;BME280;34202;52.536;6.042;2023-04-06T16:25:29;101528.02;;;8.70;84.23
48404;BME280;34202;52.536;6.042;2023-04-06T16:30:30;101521.23;;;8.63;84.75
48404;BME280;34202;52.536;6.042;2023-04-06T16:35:30;101512.11;;;8.59;85.26
48404;BME280;34202;52.536;6.042;2023-04-06T16:40:30;101514.13;;;8.56;85.90
48404;BME280;34202;52.536;6.042;2023-04-06T16:45:31;101507.95;;;8.52;86.22
48404;BME280;34202;52.536;6.042;2023-04-06T16:50:31;101508.14;;;8.46;86.53
48404;BME280;34202;52.536;6.042;2023-04-06T16:55:31;101501.56;;;8.41;87.02
48404;BME280;34202;52.536;6.042;2023-04-06T17:00:32;101500.19;;;8.36;87.18
48404;BME280;34202;52.536;6.042;2023-04-06T17:05:32;101495.19;;;8.29;87.61
48404;BME280;34202;52.536;6.042;2023-04-06T17:14:00;101495.08;;;8.25;88.19
48404;BME280;34202;52.536;6.042;2023-04-06T17:19:01;101495.95;;;8.19;88.52
48404;BME280;34202;52.536;6.042;2023-04-06T17:24:01;101492.97;;;8.12;88.92
48404;BME280;34202;52.536;6.042;2023-04-06T17:29:02;101492.27;;;8.05;89.17
48404;BME280;34202;52.536;6.042;2023-04-06T17:34:02;101487.65;;;8.01;89.63
48404;BME280;34202;52.536;6.042;2023-04-06T17:39:02;101486.35;;;7.98;90.08
48404;BME280;34202;52.536;6.042;2023-04-06T17:44:03;101489.02;;;7.94;90.23
48404;BME280;34202;52.536;6.042;2023-04-06T17:49:03;101484.08;;;7.90;90.54
48404;BME280;34202;52.536;6.042;2023-04-06T17:54:07;101481.89;;;7.86;91.01
48404;BME280;34202;52.536;6.042;2023-04-06T17:59:07;101484.55;;;7.83;91.18
48404;BME280;34202;52.536;6.042;2023-04-06T18:04:10;101489.96;;;7.78;91.33
48404;BME280;34202;52.536;6.042;2023-04-06T18:09:10;101492.83;;;7.75;91.75
48404;BME280;34202;52.536;6.042;2023-04-06T18:14:11;101491.06;;;7.74;92.18
48404;BME280;34202;52.536;6.042;2023-04-06T18:19:12;101489.60;;;7.71;92.66
48404;BME280;34202;52.536;6.042;2023-04-06T18:24:13;101488.50;;;7.69;93.22
48404;BME280;34202;52.536;6.042;2023-04-06T18:29:13;101484.76;;;7.66;93.43
48404;BME280;34202;52.536;6.042;2023-04-06T18:34:14;101482.27;;;7.63;93.92
48404;BME280;34202;52.536;6.042;2023-04-06T18:39:15;101480.94;;;7.60;94.18
48404;BME280;34202;52.536;6.042;2023-04-06T18:44:15;101483.66;;;7.58;94.78
48404;BME280;34202;52.536;6.042;2023-04-06T18:49:15;101490.05;;;7.57;95.00
48404;BME280;34202;52.536;6.042;2023-04-06T18:54:15;101495.23;;;7.57;95.24
48404;BME280;34202;52.536;6.042;2023-04-06T18:59:16;101502.19;;;7.57;95.57
48404;BME280;34202;52.536;6.042;2023-04-06T19:04:16;101499.95;;;7.58;95.99
48404;BME280;34202;52.536;6.042;2023-04-06T19:09:16;101505.78;;;7.56;96.40
48404;BME280;34202;52.536;6.042;2023-04-06T19:14:17;101500.20;;;7.54;96.52
48404;BME280;34202;52.536;6.042;2023-04-06T19:19:17;101494.81;;;7.54;96.84
48404;BME280;34202;52.536;6.042;2023-04-06T19:24:18;101493.77;;;7.54;96.92
48404;BME280;34202;52.536;6.042;2023-04-06T19:29:18;101485.98;;;7.53;97.01
48404;BME280;34202;52.536;6.042;2023-04-06T19:34:18;101487.14;;;7.53;97.51
48404;BME280;34202;52.536;6.042;2023-04-06T19:39:19;101491.48;;;7.53;97.48
48404;BME280;34202;52.536;6.042;2023-04-06T19:44:19;101491.47;;;7.52;97.97
48404;BME280;34202;52.536;6.042;2023-04-06T19:49:19;101488.69;;;7.52;98.10
48404;BME280;34202;52.536;6.042;2023-04-06T19:54:20;101495.45;;;7.52;98.20
48404;BME280;34202;52.536;6.042;2023-04-06T19:59:21;101498.90;;;7.52;98.39
48404;BME280;34202;52.536;6.042;2023-04-06T20:04:21;101498.94;;;7.53;98.51
48404;BME280;34202;52.536;6.042;2023-04-06T20:09:22;101498.46;;;7.54;98.75
48404;BME280;34202;52.536;6.042;2023-04-06T20:14:23;101496.59;;;7.55;99.04
48404;BME280;34202;52.536;6.042;2023-04-06T20:19:24;101497.29;;;7.55;99.13
48404;BME280;34202;52.536;6.042;2023-04-06T20:24:24;101501.63;;;7.57;99.32
48404;BME280;34202;52.536;6.042;2023-04-06T20:29:25;101500.63;;;7.58;99.28
48404;BME280;34202;52.536;6.042;2023-04-06T20:34:26;101497.16;;;7.58;99.45
48404;BME280;34202;52.536;6.042;2023-04-06T20:39:27;101503.75;;;7.58;99.88
48404;BME280;34202;52.536;6.042;2023-04-06T20:44:30;101506.20;;;7.59;99.87
48404;BME280;34202;52.536;6.042;2023-04-06T20:49:30;101497.77;;;7.60;99.82
48404;BME280;34202;52.536;6.042;2023-04-06T20:54:30;101490.58;;;7.63;99.98
48404;BME280;34202;52.536;6.042;2023-04-06T20:59:30;101486.68;;;7.66;99.94
48404;BME280;34202;52.536;6.042;2023-04-06T21:04:32;101484.98;;;7.68;100.00
48404;BME280;34202;52.536;6.042;2023-04-06T21:09:33;101487.73;;;7.67;100.00
48404;BME280;34202;52.536;6.042;2023-04-06T21:14:34;101484.40;;;7.65;100.00
48404;BME280;34202;52.536;6.042;2023-04-06T21:19:35;101487.85;;;7.65;100.00
48404;BME280;34202;52.536;6.042;2023-04-06T21:24:35;101486.83;;;7.65;100.00
48404;BME280;34202;52.536;6.042;2023-04-06T21:29:36;101489.63;;;7.67;100.00
48404;BME280;34202;52.536;6.042;2023-04-06T21:34:36;101489.50;;;7.68;100.00
48404;BME280;34202;52.536;6.042;2023-04-06T21:39:37;101485.73;;;7.69;100.00
48404;BME280;34202;52.536;6.042;2023-04-06T21:44:37;101487.86;;;7.71;100.00
48404;BME280;34202;52.536;6.042;2023-04-06T21:49:38;101484.95;;;7.72;100.00
48404;BME280;34202;52.536;6.042;2023-04-06T21:54:38;101483.41;;;7.73;100.00
48404;BME280;34202;52.536;6.042;2023-04-06T21:59:38;101481.30;;;7.72;100.00
48404;BME280;34202;52.536;6.042;2023-04-06T22:04:39;101483.04;;;7.72;100.00
48404;BME280;34202;52.536;6.042;2023-04-06T22:09:39;101482.01;;;7.72;100.00
48404;BME280;34202;52.536;6.042;2023-04-06T22:14:40;101477.32;;;7.72;100.00
48404;BME280;34202;52.536;6.042;2023-04-06T22:19:41;101474.20;;;7.72;100.00
48404;BME280;34202;52.536;6.042;2023-04-06T22:24:41;101470.39;;;7.72;100.00
48404;BME280;34202;52.536;6.042;2023-04-06T22:29:41;101461.41;;;7.73;100.00
48404;BME280;34202;52.536;6.042;2023-04-06T22:34:41;101468.51;;;7.73;100.00
48404;BME280;34202;52.536;6.042;2023-04-06T22:39:42;101469.56;;;7.73;100.00
48404;BME280;34202;52.536;6.042;2023-04-06T22:44:42;101473.02;;;7.73;100.00
48404;BME280;34202;52.536;6.042;2023-04-06T22:49:42;101478.92;;;7.74;100.00
48404;BME280;34202;52.536;6.042;2023-04-06T22:54:42;101480.67;;;7.74;100.00
48404;BME280;34202;52.536;6.042;2023-04-06T22:59:43;101486.77;;;7.75;100.00
48404;BME280;34202;52.536;6.042;2023-04-06T23:04:43;101486.23;;;7.75;100.00
48404;BME280;34202;52.536;6.042;2023-04-06T23:09:45;101478.61;;;7.75;100.00
48404;BME280;34202;52.536;6.042;2023-04-06T23:14:46;101475.35;;;7.76;100.00
48404;BME280;34202;52.536;6.042;2023-04-06T23:19:46;101476.75;;;7.77;100.00
48404;BME280;34202;52.536;6.042;2023-04-06T23:24:46;101478.64;;;7.76;100.00
48404;BME280;34202;52.536;6.042;2023-04-06T23:29:48;101482.27;;;7.76;100.00
48404;BME280;34202;52.536;6.042;2023-04-06T23:34:48;101485.09;;;7.77;100.00
48404;BME280;34202;52.536;6.042;2023-04-06T23:39:49;101487.70;;;7.78;100.00
48404;BME280;34202;52.536;6.042;2023-04-06T23:44:49;101488.08;;;7.79;100.00
48404;BME280;34202;52.536;6.042;2023-04-06T23:49:49;101491.22;;;7.79;100.00
48404;BME280;34202;52.536;6.042;2023-04-06T23:54:49;101494.36;;;7.81;100.00
48404;BME280;34202;52.536;6.042;2023-04-06T23:59:50;101490.90;;;7.81;100.00
